Página principal
METAR-TAF:

METAR-TAF

Aeroportos :

Aeroporto Internacional de Dubai

Dubai, Emirados Árabes Unidos

latitude: 25-15-10N, longitude: 055-21-52E, altura: 8 m

Observação actual do tempo

O boletim foi feito há 40 minutos, às 10:00 UTC
Vento 11 kt de oeste
Temperatura 41°C
Humidade 15%
Pressão 996 hPa
Visibilidade: 8000 m

METAR: OMDB 201000Z 28011KT 8000 NSC 41/09 Q0996 NOSIG

Hora: 14:40 (10:40 UTC)

Previsão

O boletim foi feito há 5 horas e 50 minutos, às 04:50 UTC
Previsão válida de 20 às 06 UTC a 21 às 12 UTC
Vento 7 kt de sudoeste
Visibilidade: 8000 m
Tornando-se
de 20 às 06 UTC a 20 às 08 UTC
Vento 13 kt de oes-noroeste
Tornando-se
de 20 às 15 UTC a 20 às 17 UTC
Vento 5 kt de es-sudeste
Tornando-se
de 21 às 06 UTC a 21 às 08 UTC
Vento 12 kt de oes-noroeste

TAF: OMDB 200450Z 2006/2112 23007KT 8000 NSC BECMG 2006/2008 29013KT BECMG 2015/2017 12005KT BECMG 2106/2108 30012KT

Observações e previsões do tempo de mais de 4000 aeroportos (mensagens METAR e TAF).

As estações disponíveis são os pontos amarelos e vermelhos sobre o mapa.

Mova o rato sobre o mapa para ver o nome da estação.

Depois clique no ponto para visualizar as observações e previsões meteorológicas.

Para alterar o mapa : clique nos botões verdes com uma cruz preta para aumentar o zoom; no botão verde com uma pitada de zoom; ou nas setas verdes para mapas adjacentes.


METAR-TAF: